Time;durP1;ratioP1;P1;durP2;ratioP2;P2;SDS_P1;SDS_P2;PMS_P1;PMS_P2;Temp;Humidity;BMP_temperature;BMP_pressure;BME280_temperature;BME280_humidity;BME280_pressure;Samples;Min_cycle;Max_cycle;Signal;HPM_P1;HPM_P2
2023/11/08 00:01:05;;;;;;;15.57;12.07;;;;;;;6.84;76.96;99074.09;5092146;28;20035;-47
2023/11/08 00:03:31;;;;;;;12.18;8.80;;;;;;;6.89;76.52;99081.44;5092163;28;20020;-47
2023/11/08 00:05:57;;;;;;;11.05;8.02;;;;;;;6.90;76.92;99080.44;5091964;28;20490;-47
2023/11/08 00:08:22;;;;;;;16.55;8.75;;;;;;;7.25;77.60;99071.38;5090798;28;20433;-48
2023/11/08 00:10:49;;;;;;;13.85;10.82;;;;;;;7.76;77.66;99061.31;5092025;28;20485;-48
2023/11/08 00:13:20;;;;;;;11.20;8.10;;;;;;;7.62;74.81;99054.19;5091979;28;20020;-48
2023/11/08 00:15:48;;;;;;;11.35;7.85;;;;;;;7.25;75.28;99060.13;5092008;28;20106;-47
2023/11/08 00:18:14;;;;;;;15.32;11.93;;;;;;;7.23;75.75;99062.88;5091759;28;20105;-48
2023/11/08 00:20:40;;;;;;;15.82;7.40;;;;;;;7.53;76.35;99061.28;5091807;28;20028;-48
2023/11/08 00:23:06;;;;;;;25.35;22.95;;;;;;;7.63;75.23;99049.81;5090662;28;20378;-48
2023/11/08 00:25:31;;;;;;;12.45;10.82;;;;;;;7.54;74.87;99049.84;5091714;28;20012;-48
2023/11/08 00:27:58;;;;;;;46.83;42.28;;;;;;;7.40;73.99;99059.22;5091902;28;20129;-48
2023/11/08 00:30:24;;;;;;;27.75;18.83;;;;;;;7.30;74.61;99057.78;5091826;28;20023;-48
2023/11/08 00:32:49;;;;;;;17.60;14.98;;;;;;;7.17;74.55;99064.38;5091832;28;20490;-48
2023/11/08 00:35:16;;;;;;;21.05;15.05;;;;;;;7.23;75.81;99059.47;5090484;28;20024;-48
2023/11/08 00:37:42;;;;;;;21.25;19.08;;;;;;;7.50;76.40;99059.00;5091702;28;20564;-48
2023/11/08 00:40:08;;;;;;;12.35;7.05;;;;;;;7.62;75.33;99061.22;5091760;28;20024;-48
2023/11/08 00:42:34;;;;;;;10.55;7.75;;;;;;;7.37;74.85;99059.56;5091710;28;20024;-48
2023/11/08 00:45:00;;;;;;;10.30;7.70;;;;;;;6.97;74.61;99061.34;5090329;28;20035;-48
2023/11/08 00:47:26;;;;;;;13.65;7.90;;;;;;;6.54;75.29;99067.78;5091681;28;20034;-48
2023/11/08 00:49:51;;;;;;;12.93;8.02;;;;;;;6.18;76.69;99061.13;5090359;28;20044;-48
2023/11/08 00:52:17;;;;;;;12.45;7.65;;;;;;;5.91;77.93;99064.00;5091619;28;20056;-48
2023/11/08 00:54:43;;;;;;;24.85;22.35;;;;;;;5.89;78.87;99074.56;5090295;28;20583;-48
2023/11/08 00:57:10;;;;;;;11.88;8.30;;;;;;;6.29;79.38;99064.38;5094644;28;20023;-47
2023/11/08 00:59:36;;;;;;;12.40;7.65;;;;;;;6.71;79.71;99061.56;5095530;28;20062;-48
2023/11/08 01:02:03;;;;;;;10.77;6.68;;;;;;;7.12;78.91;99065.84;5094181;28;20028;-48
2023/11/08 01:04:29;;;;;;;13.32;10.52;;;;;;;7.51;77.88;99047.59;5095362;28;20436;-48
2023/11/08 01:06:54;;;;;;;14.32;9.02;;;;;;;7.83;76.60;99053.59;5095444;28;20089;-47
2023/11/08 01:09:20;;;;;;;11.15;7.57;;;;;;;7.87;75.44;99059.28;5095407;28;20466;-48
2023/11/08 01:11:48;;;;;;;10.10;6.38;;;;;;;7.86;75.07;99057.66;5095324;28;20062;-48
2023/11/08 01:14:14;;;;;;;10.52;5.70;;;;;;;8.18;75.50;99060.03;5095269;28;20099;-48
2023/11/08 01:16:40;;;;;;;14.18;6.97;;;;;;;8.53;73.97;99057.00;5093935;28;20123;-48
2023/11/08 01:19:06;;;;;;;11.68;6.43;;;;;;;8.50;72.78;99065.22;5093674;28;20050;-48
2023/11/08 01:21:32;;;;;;;15.50;6.70;;;;;;;8.36;72.74;99059.72;5093839;28;20020;-48
2023/11/08 01:24:00;;;;;;;13.95;11.95;;;;;;;8.30;72.42;99057.81;5093795;28;20036;-47
2023/11/08 01:26:25;;;;;;;12.07;7.05;;;;;;;8.04;71.54;99054.75;5094984;28;20020;-48
2023/11/08 01:28:51;;;;;;;9.32;6.63;;;;;;;7.57;71.63;99056.53;5095071;28;20516;-48
2023/11/08 01:31:17;;;;;;;8.90;6.72;;;;;;;7.23;72.49;99057.66;5094972;28;20019;-47
2023/11/08 01:33:43;;;;;;;17.58;8.02;;;;;;;7.05;73.49;99063.13;5093568;28;20154;-48
2023/11/08 01:36:08;;;;;;;12.57;8.18;;;;;;;6.91;73.79;99059.41;5094969;28;20020;-48
2023/11/08 01:38:35;;;;;;;11.27;8.18;;;;;;;6.56;73.72;99061.44;5093500;28;20131;-48
2023/11/08 01:41:02;;;;;;;10.00;7.00;;;;;;;6.35;74.86;99068.94;5094771;28;20119;-48
2023/11/08 01:43:29;;;;;;;12.40;6.97;;;;;;;6.28;75.96;99068.78;5093480;28;20035;-48
2023/11/08 01:46:08;;;;;;;22.52;20.17;;;;;;;6.13;76.73;99071.19;5093352;28;20020;-48
2023/11/08 01:48:34;;;;;;;12.38;6.63;;;;;;;6.00;76.54;99083.91;5093390;28;20045;-48
2023/11/08 01:51:03;;;;;;;10.00;6.32;;;;;;;6.08;77.97;99077.91;5094610;28;20493;-48
2023/11/08 01:53:31;;;;;;;8.75;6.55;;;;;;;6.05;77.09;99073.81;5094510;28;20408;-48
2023/11/08 01:55:57;;;;;;;9.32;6.13;;;;;;;5.89;77.38;99077.16;5094492;28;20060;-48
2023/11/08 01:58:23;;;;;;;10.68;6.43;;;;;;;5.89;78.16;99068.53;5094439;28;20120;-48
2023/11/08 02:00:51;;;;;;;9.95;7.53;;;;;;;5.67;78.79;99075.19;5093113;28;20042;-48
2023/11/08 02:03:17;;;;;;;10.55;7.47;;;;;;;5.66;80.51;99069.16;5094370;28;20024;-47
2023/11/08 02:05:44;;;;;;;19.23;14.52;;;;;;;5.90;81.42;99067.59;5092935;28;20397;-47
2023/11/08 02:08:10;;;;;;;34.03;30.58;;;;;;;6.04;83.20;99066.16;5092117;28;20035;-48
2023/11/08 02:10:36;;;;;;;71.22;63.97;;;;;;;6.01;82.90;99056.88;5092911;28;20028;-48
2023/11/08 02:13:03;;;;;;;28.27;25.23;;;;;;;5.68;82.91;99056.00;5092886;28;20032;-48
2023/11/08 02:15:41;;;;;;;20.90;17.00;;;;;;;5.37;83.87;99065.19;5092794;28;20094;-48
2023/11/08 02:18:07;;;;;;;10.20;8.57;;;;;;;5.57;86.62;99060.53;5094147;28;20387;-48
2023/11/08 02:20:34;;;;;;;15.05;10.02;;;;;;;5.85;87.84;99067.25;5092688;28;20039;-48
2023/11/08 02:22:59;;;;;;;10.70;5.60;;;;;;;6.30;88.82;99061.63;5092690;28;20024;-48
2023/11/08 02:25:25;;;;;;;24.42;22.05;;;;;;;6.63;88.53;99058.97;5093804;28;20413;-48
2023/11/08 02:27:51;;;;;;;13.52;7.65;;;;;;;7.02;89.07;99060.81;5092597;28;20401;-48
2023/11/08 02:30:17;;;;;;;11.30;7.65;;;;;;;7.34;87.41;99065.09;5093833;28;20031;-48
2023/11/08 02:32:44;;;;;;;9.98;5.78;;;;;;;7.58;86.53;99068.59;5093845;28;20028;-48
2023/11/08 02:35:09;;;;;;;215.57;194.50;;;;;;;7.98;87.88;99053.66;5093762;28;20028;-48
2023/11/08 02:37:35;;;;;;;81.47;74.25;;;;;;;8.22;87.63;99057.09;5093688;28;20042;-48
2023/11/08 02:40:03;;;;;;;76.07;69.03;;;;;;;8.20;88.49;99059.88;5092364;28;20081;-48
2023/11/08 02:42:29;;;;;;;164.73;148.73;;;;;;;8.24;89.54;99055.09;5093540;28;20051;-47
2023/11/08 02:44:55;;;;;;;327.13;296.73;;;;;;;8.23;89.36;99056.06;5093476;28;20502;-48
2023/11/08 02:47:21;;;;;;;405.73;364.33;;;;;;;8.12;88.49;99062.53;5092068;28;20081;-48
2023/11/08 02:49:49;;;;;;;250.60;227.25;;;;;;;7.98;88.28;99064.09;5093748;28;20024;-48
2023/11/08 02:52:15;;;;;;;46.58;41.78;;;;;;;7.86;89.05;99061.06;5093365;28;20107;-48
2023/11/08 02:54:40;;;;;;;125.30;114.18;;;;;;;7.94;89.61;99060.22;5092009;28;20115;-48
2023/11/08 02:57:07;;;;;;;255.70;232.57;;;;;;;7.86;88.25;99061.06;5091976;28;20119;-48
2023/11/08 02:59:36;;;;;;;111.90;100.68;;;;;;;7.84;88.75;99054.41;5093086;28;20099;-48
2023/11/08 03:02:03;;;;;;;63.80;57.70;;;;;;;7.60;86.35;99061.41;5093182;28;20506;-48
2023/11/08 03:04:31;;;;;;;27.15;24.27;;;;;;;7.18;85.95;99065.19;5093068;28;20099;-48
2023/11/08 03:06:57;;;;;;;23.25;20.85;;;;;;;7.21;88.26;99072.69;5093204;28;20016;-48
2023/11/08 03:09:23;;;;;;;11.38;8.45;;;;;;;7.39;88.40;99078.47;5091765;28;20020;-48
2023/11/08 03:11:49;;;;;;;9.75;6.93;;;;;;;7.34;86.51;99070.31;5092050;28;20024;-48
2023/11/08 03:14:15;;;;;;;8.85;6.10;;;;;;;7.39;86.77;99069.84;5091680;28;20066;-48
2023/11/08 03:16:41;;;;;;;20.58;8.70;;;;;;;7.28;85.86;99073.63;5074810;28;20036;-48
2023/11/08 03:19:10;;;;;;;10.65;6.30;;;;;;;7.37;87.08;99075.22;5091308;28;20040;-48
2023/11/08 03:21:37;;;;;;;9.13;5.35;;;;;;;7.45;86.56;99076.19;5091493;28;20024;-48
2023/11/08 03:24:04;;;;;;;7.10;5.07;;;;;;;7.53;86.05;99076.16;5091493;28;20444;-48
2023/11/08 03:26:30;;;;;;;6.13;4.28;;;;;;;7.27;85.25;99065.97;5074561;28;20032;-48
2023/11/08 03:28:55;;;;;;;9.13;5.05;;;;;;;6.90;84.49;99067.38;5091465;28;20115;-48
2023/11/08 03:31:21;;;;;;;6.90;5.55;;;;;;;6.69;85.49;99067.94;5091346;28;20035;-48
2023/11/08 03:33:47;;;;;;;7.95;6.20;;;;;;;6.72;86.22;99070.19;5092763;28;20068;-48
2023/11/08 03:36:12;;;;;;;12.40;9.07;;;;;;;6.85;85.96;99072.31;5092661;28;20486;-48
2023/11/08 03:38:38;;;;;;;14.10;11.88;;;;;;;6.88;85.36;99070.19;5091303;28;20024;-48
2023/11/08 03:41:04;;;;;;;8.13;4.82;;;;;;;6.75;84.72;99065.47;5091294;28;20032;-48
2023/11/08 03:43:29;;;;;;;8.50;4.82;;;;;;;6.71;84.85;99079.00;5092487;28;20095;-48
2023/11/08 03:45:55;;;;;;;8.63;7.00;;;;;;;6.72;85.15;99075.41;5091087;28;20108;-48
2023/11/08 03:48:21;;;;;;;8.10;4.40;;;;;;;6.68;84.82;99068.91;5091162;28;20024;-48
2023/11/08 03:50:46;;;;;;;6.32;4.22;;;;;;;6.62;84.39;99070.41;5091044;28;20032;-48
2023/11/08 03:53:13;;;;;;;7.22;4.30;;;;;;;6.85;86.01;99075.72;5091082;28;20111;-48
2023/11/08 03:55:38;;;;;;;6.63;4.75;;;;;;;6.91;85.46;99072.44;5090937;28;20051;-47
2023/11/08 03:58:04;;;;;;;6.47;4.45;;;;;;;6.70;85.05;99080.81;5092276;28;20024;-48
2023/11/08 04:00:30;;;;;;;8.00;5.00;;;;;;;6.36;83.42;99081.00;5092154;28;20501;-48
2023/11/08 04:02:57;;;;;;;12.00;9.88;;;;;;;6.16;85.66;99083.91;5090879;28;20115;-47
2023/11/08 04:05:23;;;;;;;11.10;6.55;;;;;;;6.06;85.57;99093.69;5092062;28;20022;-48
2023/11/08 04:07:49;;;;;;;6.32;4.90;;;;;;;5.84;86.02;99084.66;5092148;28;20460;-48
2023/11/08 04:10:16;;;;;;;6.32;4.75;;;;;;;5.62;85.26;99088.69;5092629;28;20111;-47
2023/11/08 04:12:42;;;;;;;7.47;5.00;;;;;;;5.36;84.96;99084.34;5091991;28;20104;-47
2023/11/08 04:15:08;;;;;;;5.22;4.50;;;;;;;4.97;85.23;99090.03;5090675;28;20592;-47
2023/11/08 04:17:34;;;;;;;8.27;6.20;;;;;;;4.72;86.25;99086.47;5090687;28;20020;-48
2023/11/08 04:20:00;;;;;;;8.57;5.00;;;;;;;4.60;86.81;99087.69;5090623;28;20509;-47
2023/11/08 04:22:25;;;;;;;5.63;4.22;;;;;;;4.82;88.86;99086.38;5091883;28;20016;-47
2023/11/08 04:24:51;;;;;;;5.57;3.90;;;;;;;5.42;90.07;99088.13;5092168;28;20482;-48
2023/11/08 04:27:17;;;;;;;10.50;4.53;;;;;;;6.03;89.99;99082.75;5090525;28;20016;-48
2023/11/08 04:29:43;;;;;;;8.05;4.97;;;;;;;6.72;88.63;99088.44;5090566;28;20031;-48
2023/11/08 04:32:08;;;;;;;10.20;4.90;;;;;;;7.42;86.90;99087.75;5096327;28;20489;-48
2023/11/08 04:34:34;;;;;;;5.18;3.63;;;;;;;7.91;84.42;99084.09;5098576;28;20103;-48
2023/11/08 04:37:02;;;;;;;7.60;4.95;;;;;;;8.31;81.13;99087.38;5097306;28;20027;-48
2023/11/08 04:39:28;;;;;;;7.85;3.85;;;;;;;8.59;79.52;99090.28;5098490;28;20032;-48
2023/11/08 04:41:54;;;;;;;6.25;4.03;;;;;;;8.77;78.83;99092.56;5097247;28;20439;-48
2023/11/08 04:44:20;;;;;;;16.08;7.20;;;;;;;8.79;76.89;99093.22;5098387;28;20035;-48
2023/11/08 04:46:45;;;;;;;10.60;5.30;;;;;;;8.71;75.78;99095.91;5097149;28;20028;-47
2023/11/08 04:49:12;;;;;;;12.45;4.25;;;;;;;8.22;75.45;99091.06;5097170;28;20028;-47
2023/11/08 04:51:37;;;;;;;8.82;3.90;;;;;;;7.77;75.51;99104.75;5097076;28;20016;-47
2023/11/08 04:54:05;;;;;;;6.22;3.28;;;;;;;7.37;76.14;99108.38;5097085;28;20028;-47
2023/11/08 04:56:31;;;;;;;20.02;18.10;;;;;;;6.99;76.11;99111.56;5097048;28;20058;-47
2023/11/08 04:58:57;;;;;;;26.27;11.98;;;;;;;6.89;77.79;99113.53;5097044;28;20475;-47
2023/11/08 05:01:23;;;;;;;7.38;4.90;;;;;;;7.16;78.88;99107.13;5098291;28;20024;-47
2023/11/08 05:03:49;;;;;;;7.97;3.70;;;;;;;7.39;77.07;99104.59;5096999;28;20028;-47
2023/11/08 05:06:14;;;;;;;6.55;3.55;;;;;;;6.79;75.27;99108.50;5098156;28;20020;-47
2023/11/08 05:08:40;;;;;;;6.22;3.72;;;;;;;6.12;76.31;99115.69;5096936;28;20036;-47
2023/11/08 05:11:06;;;;;;;5.18;4.07;;;;;;;5.75;78.00;99117.66;5096910;28;20031;-47
2023/11/08 05:13:31;;;;;;;11.55;4.60;;;;;;;6.22;80.57;99110.28;5098210;28;20375;-47
2023/11/08 05:15:57;;;;;;;11.45;5.65;;;;;;;6.94;80.41;99097.38;5098211;28;20103;-47
2023/11/08 05:18:24;;;;;;;6.53;4.13;;;;;;;7.39;78.69;99095.94;5097885;28;20048;-48
2023/11/08 05:20:50;;;;;;;11.82;9.57;;;;;;;7.41;76.98;99101.81;5098148;28;20109;-47
2023/11/08 05:23:16;;;;;;;14.02;5.28;;;;;;;7.51;76.87;99096.41;5096819;28;20070;-47
2023/11/08 05:25:41;;;;;;;8.32;3.40;;;;;;;7.50;76.10;99098.16;5098043;28;20016;-48
2023/11/08 05:28:08;;;;;;;5.80;4.63;;;;;;;7.74;75.88;99091.19;5096790;28;20031;-47
2023/11/08 05:30:37;;;;;;;8.68;3.22;;;;;;;8.01;74.88;99092.53;5098071;28;20142;-48
2023/11/08 05:33:05;;;;;;;6.88;3.08;;;;;;;8.15;73.44;99094.38;5098072;28;20020;-48
2023/11/08 05:35:31;;;;;;;7.90;3.33;;;;;;;8.25;72.96;99093.31;5098029;28;20493;-47
2023/11/08 05:37:57;;;;;;;5.82;3.28;;;;;;;8.34;72.20;99087.06;5096728;28;20078;-48
2023/11/08 05:40:24;;;;;;;6.18;3.28;;;;;;;8.45;71.90;99089.28;5079913;28;20071;-47
2023/11/08 05:42:50;;;;;;;10.98;3.38;;;;;;;8.45;71.14;99091.06;5093554;28;20096;-47
2023/11/08 05:45:16;;;;;;;4.72;3.25;;;;;;;8.47;70.56;99089.09;5094596;28;20595;-48
2023/11/08 05:47:44;;;;;;;5.88;3.65;;;;;;;8.23;69.53;99093.53;5094753;28;20024;-48
2023/11/08 05:50:10;;;;;;;6.35;3.67;;;;;;;7.66;70.31;99086.84;5094632;28;20035;-48
2023/11/08 05:52:36;;;;;;;8.02;3.95;;;;;;;7.00;70.55;99088.88;5093303;28;20383;-47
2023/11/08 05:55:02;;;;;;;5.15;3.55;;;;;;;6.49;72.18;99098.75;5093266;28;20030;-47
2023/11/08 05:57:28;;;;;;;5.22;4.35;;;;;;;6.51;74.65;99102.00;5093238;28;20438;-48
2023/11/08 05:59:53;;;;;;;8.27;3.60;;;;;;;7.30;75.81;99102.97;5093167;28;20077;-48
2023/11/08 06:02:20;;;;;;;5.28;3.20;;;;;;;8.03;74.12;99103.63;5093019;28;20024;-47
2023/11/08 06:04:46;;;;;;;11.13;4.05;;;;;;;8.56;72.58;99107.16;5094295;28;20028;-48
2023/11/08 06:07:12;;;;;;;18.73;9.02;;;;;;;8.86;70.66;99094.13;5094339;28;20118;-48
2023/11/08 06:09:38;;;;;;;11.88;5.13;;;;;;;8.93;69.71;99102.91;5094314;28;20035;-48
2023/11/08 06:12:05;;;;;;;15.88;5.70;;;;;;;9.13;68.95;99094.50;5094261;28;20024;-48
2023/11/08 06:14:31;;;;;;;12.25;4.00;;;;;;;9.39;68.22;99105.31;5094118;28;20043;-48
2023/11/08 06:16:57;;;;;;;28.98;5.03;;;;;;;9.33;66.98;99102.63;5092834;28;20024;-48
2023/11/08 06:19:23;;;;;;;13.35;4.32;;;;;;;8.86;66.91;99112.47;5092576;28;20052;-48
2023/11/08 06:21:49;;;;;;;20.40;4.68;;;;;;;8.39;67.02;99116.94;5092716;28;20028;-48
2023/11/08 06:24:15;;;;;;;24.98;5.53;;;;;;;8.09;68.50;99117.78;5092773;28;20020;-48
2023/11/08 06:26:42;;;;;;;19.02;6.03;;;;;;;7.85;68.13;99113.50;5092567;28;20024;-48
2023/11/08 06:29:07;;;;;;;25.55;6.60;;;;;;;7.46;68.56;99114.34;5092640;28;20115;-47
2023/11/08 06:31:36;;;;;;;12.50;4.78;;;;;;;7.06;68.85;99118.72;5093850;28;20095;-48
2023/11/08 06:34:03;;;;;;;23.30;5.50;;;;;;;6.82;69.84;99117.78;5093816;28;20107;-47
2023/11/08 06:36:29;;;;;;;31.00;21.10;;;;;;;6.90;70.92;99112.56;5092402;28;20505;-47
2023/11/08 06:38:55;;;;;;;14.25;5.70;;;;;;;7.15;71.22;99113.31;5092390;28;20032;-47
2023/11/08 06:41:20;;;;;;;13.63;5.60;;;;;;;7.44;70.84;99124.97;5075517;28;20485;-48
2023/11/08 06:43:46;;;;;;;21.08;6.20;;;;;;;7.45;69.75;99125.81;5093683;28;20107;-48
2023/11/08 06:46:14;;;;;;;33.00;16.42;;;;;;;7.34;70.55;99122.53;5092154;28;20521;-47
2023/11/08 06:48:40;;;;;;;11.13;5.47;;;;;;;7.73;70.93;99120.94;5092229;28;20077;-47
2023/11/08 06:51:06;;;;;;;16.70;5.30;;;;;;;8.42;70.03;99135.91;5092324;28;20042;-48
2023/11/08 06:53:32;;;;;;;28.05;6.30;;;;;;;8.77;68.63;99135.28;5093011;28;20024;-48
2023/11/08 06:55:58;;;;;;;25.13;7.07;;;;;;;9.02;67.30;99142.91;5058651;28;20024;-48
2023/11/08 06:58:30;;;;;;;22.10;6.30;;;;;;;9.22;66.58;99142.38;5093369;28;20071;-48
2023/11/08 07:01:05;;;;;;;18.00;6.10;;;;;;;9.67;65.68;99138.72;5093300;28;20441;-48
2023/11/08 07:03:31;;;;;;;15.70;6.27;;;;;;;10.54;63.79;99140.50;5093284;28;20048;-48
2023/11/08 07:05:57;;;;;;;19.00;5.85;;;;;;;11.27;61.21;99136.72;5091780;28;20020;-48
2023/11/08 07:08:23;;;;;;;17.65;5.70;;;;;;;11.64;59.02;99138.16;5091820;28;20035;-48
2023/11/08 07:10:50;;;;;;;67.65;60.70;;;;;;;11.57;58.84;99140.75;5091789;28;20081;-48
2023/11/08 07:13:16;;;;;;;62.95;56.30;;;;;;;11.23;58.46;99153.91;5093289;28;20381;-47
2023/11/08 07:15:42;;;;;;;20.38;13.25;;;;;;;11.07;59.01;99158.47;5093044;28;20107;-48
2023/11/08 07:18:09;;;;;;;15.80;8.73;;;;;;;11.62;58.28;99149.88;5092713;28;20044;-48
2023/11/08 07:20:36;;;;;;;22.33;9.40;;;;;;;12.35;56.16;99152.75;5092888;28;20173;-48
2023/11/08 07:23:04;;;;;;;22.98;6.70;;;;;;;13.03;54.59;99149.13;5091568;28;20032;-48
2023/11/08 07:25:32;;;;;;;18.60;7.20;;;;;;;13.59;52.47;99153.91;5091422;28;20079;-48
2023/11/08 07:27:58;;;;;;;16.52;6.30;;;;;;;14.17;51.33;99153.84;5091510;28;20044;-48
2023/11/08 07:30:24;;;;;;;33.80;13.07;;;;;;;14.61;49.81;99153.16;5092743;28;20063;-48
2023/11/08 07:32:49;;;;;;;13.73;6.43;;;;;;;15.10;48.69;99149.69;5093003;28;20472;-48
2023/11/08 07:35:15;;;;;;;18.52;6.63;;;;;;;15.23;46.96;99162.00;5091431;28;20072;-48
2023/11/08 07:37:41;;;;;;;28.75;7.20;;;;;;;15.00;47.60;99156.50;5092643;28;20028;-48
2023/11/08 07:40:11;;;;;;;27.15;7.75;;;;;;;14.89;46.92;99160.66;5091232;28;20097;-48
2023/11/08 07:42:38;;;;;;;26.77;6.90;;;;;;;15.02;46.47;99165.03;5092591;28;20485;-48
2023/11/08 07:45:08;;;;;;;26.75;6.13;;;;;;;15.21;46.55;99161.38;5092327;28;20024;-48
2023/11/08 07:47:34;;;;;;;22.58;9.60;;;;;;;15.36;46.07;99161.84;5091211;28;20406;-48
2023/11/08 07:49:59;;;;;;;39.40;22.67;;;;;;;15.50;45.82;99161.72;5092471;28;20373;-48
2023/11/08 07:52:25;;;;;;;14.70;7.03;;;;;;;15.57;44.95;99167.72;5092253;28;20032;-48
2023/11/08 07:54:52;;;;;;;22.95;17.65;;;;;;;15.60;45.11;99164.66;5091007;28;20515;-49
2023/11/08 07:57:18;;;;;;;27.33;9.43;;;;;;;15.80;44.84;99163.66;5092291;28;20474;-48
2023/11/08 07:59:45;;;;;;;15.07;6.85;;;;;;;16.04;44.21;99156.63;5092242;28;20062;-48
2023/11/08 08:02:11;;;;;;;33.90;8.85;;;;;;;16.34;43.95;99167.19;5092080;28;20028;-48
2023/11/08 08:04:37;;;;;;;28.50;7.25;;;;;;;16.64;43.11;99159.22;5090777;28;20039;-48
2023/11/08 08:07:06;;;;;;;15.27;8.90;;;;;;;16.97;42.96;99155.22;5091523;28;20482;-48
2023/11/08 08:09:33;;;;;;;13.82;7.63;;;;;;;17.34;42.26;99152.31;5092070;28;20103;-48
2023/11/08 08:11:59;;;;;;;10.40;6.20;;;;;;;17.62;41.45;99156.06;5092322;28;20468;-46
2023/11/08 08:14:24;;;;;;;21.38;11.20;;;;;;;17.85;41.17;99155.22;5091973;28;20023;-46
2023/11/08 08:16:55;;;;;;;20.55;7.50;;;;;;;17.94;39.81;99157.28;5090834;28;20027;-46
2023/11/08 08:19:24;;;;;;;17.23;8.35;;;;;;;17.96;39.91;99154.38;5090718;28;20040;-46
2023/11/08 08:21:51;;;;;;;21.75;7.45;;;;;;;18.15;39.45;99147.84;5091911;28;20099;-46
2023/11/08 08:24:20;;;;;;;18.92;8.48;;;;;;;18.47;38.37;99151.81;5091871;28;20020;-46
2023/11/08 08:26:46;;;;;;;22.00;14.85;;;;;;;18.67;38.47;99143.38;5091759;28;20081;-46
2023/11/08 08:29:14;;;;;;;13.25;6.78;;;;;;;18.94;37.94;99141.69;5073760;28;20134;-46
2023/11/08 08:31:39;;;;;;;9.88;7.55;;;;;;;19.30;37.36;99136.09;5091915;28;20020;-46
2023/11/08 08:34:07;;;;;;;13.45;7.70;;;;;;;19.60;36.86;99140.97;5091940;28;20016;-46
2023/11/08 08:36:33;;;;;;;32.85;26.35;;;;;;;19.81;36.39;99128.72;5092031;28;20028;-46
2023/11/08 08:38:59;;;;;;;19.88;11.38;;;;;;;20.04;35.96;99132.97;5091802;28;20081;-46
2023/11/08 08:41:24;;;;;;;12.48;7.95;;;;;;;20.35;35.64;99138.59;5091746;28;20016;-46
2023/11/08 08:43:50;;;;;;;14.07;6.78;;;;;;;20.57;35.41;99121.72;5090477;28;20055;-46
2023/11/08 08:46:16;;;;;;;10.98;7.15;;;;;;;20.76;34.84;99120.25;5073522;28;20020;-46
2023/11/08 08:48:42;;;;;;;15.25;6.72;;;;;;;20.87;34.58;99119.28;5073624;28;20028;-46
2023/11/08 08:51:08;;;;;;;18.55;6.40;;;;;;;21.18;34.29;99116.78;5091654;28;20077;-46
2023/11/08 08:53:34;;;;;;;17.08;7.13;;;;;;;21.40;34.11;99115.81;5073556;28;20028;-46
2023/11/08 08:56:00;;;;;;;25.77;7.28;;;;;;;21.53;34.09;99116.19;5091628;28;20107;-46
2023/11/08 08:58:26;;;;;;;12.65;6.00;;;;;;;21.79;33.31;99112.78;5090284;28;20042;-46
2023/11/08 09:00:53;;;;;;;16.33;5.70;;;;;;;22.08;33.24;99110.44;5090227;28;20027;-46
2023/11/08 09:03:19;;;;;;;16.85;6.40;;;;;;;22.44;32.95;99113.16;5091582;28;20056;-46
2023/11/08 09:05:45;;;;;;;16.35;6.57;;;;;;;22.62;32.87;99120.63;5091438;28;20028;-46
2023/11/08 09:08:11;;;;;;;10.40;5.75;;;;;;;22.72;32.27;99114.47;5091492;28;20055;-46
2023/11/08 09:10:37;;;;;;;15.77;6.15;;;;;;;21.76;33.47;99114.09;5091551;28;20400;-46
2023/11/08 09:13:03;;;;;;;21.55;6.80;;;;;;;21.26;34.63;99108.28;5090197;28;20032;-46
2023/11/08 09:15:30;;;;;;;13.48;6.22;;;;;;;21.53;34.79;99110.00;5091437;28;20020;-46
2023/11/08 09:17:56;;;;;;;18.65;6.00;;;;;;;22.02;34.00;99114.16;5093697;28;20087;-47
2023/11/08 09:20:22;;;;;;;11.82;6.18;;;;;;;22.40;33.44;99112.88;5095327;28;20397;-46
2023/11/08 09:22:48;;;;;;;13.27;6.07;;;;;;;22.67;32.98;99111.81;5095265;28;20084;-46
2023/11/08 09:25:14;;;;;;;14.30;6.05;;;;;;;22.76;32.85;99104.84;5095060;28;20038;-46
2023/11/08 09:27:40;;;;;;;11.88;8.40;;;;;;;22.96;32.73;99098.66;5093842;28;20067;-46
2023/11/08 09:30:07;;;;;;;8.77;6.15;;;;;;;23.10;32.39;99094.34;5095076;28;20028;-46
2023/11/08 09:32:33;;;;;;;6.25;5.45;;;;;;;23.20;32.62;99106.91;5093747;28;20024;-46
2023/11/08 09:34:58;;;;;;;17.23;5.40;;;;;;;23.50;32.53;99113.19;5093710;28;20059;-46
2023/11/08 09:37:24;;;;;;;20.48;6.90;;;;;;;23.65;31.95;99115.81;5093649;28;20520;-46
2023/11/08 09:39:50;;;;;;;12.65;5.60;;;;;;;23.73;31.91;99117.13;5094868;28;20016;-46
2023/11/08 09:42:21;;;;;;;12.98;6.38;;;;;;;23.82;32.15;99112.78;5094879;28;20028;-46
2023/11/08 09:44:47;;;;;;;12.13;5.70;;;;;;;24.21;31.55;99106.66;5094765;28;20566;-46
2023/11/08 09:47:14;;;;;;;18.88;6.32;;;;;;;24.09;32.00;99098.16;5093421;28;20024;-47
2023/11/08 09:49:48;;;;;;;19.95;7.72;;;;;;;24.05;32.40;99102.50;5094684;28;20020;-46
2023/11/08 09:52:13;;;;;;;11.20;7.20;;;;;;;24.08;31.83;99099.22;5094747;28;20032;-46
2023/11/08 09:54:41;;;;;;;15.38;6.95;;;;;;;24.00;31.95;99095.25;5094605;28;20020;-46
2023/11/08 09:57:13;;;;;;;12.57;6.47;;;;;;;24.00;32.14;99094.47;5094783;28;20074;-46
2023/11/08 09:59:41;;;;;;;16.02;6.90;;;;;;;23.86;32.28;99096.97;5094503;28;20058;-46
2023/11/08 10:02:10;;;;;;;12.93;5.97;;;;;;;24.03;32.39;99091.25;5094378;28;20024;-46
2023/11/08 10:04:36;;;;;;;12.07;6.47;;;;;;;24.24;31.74;99105.28;5094581;28;20020;-47
2023/11/08 10:07:02;;;;;;;15.65;6.50;;;;;;;24.27;31.48;99092.13;5094585;28;20020;-47
2023/11/08 10:09:31;;;;;;;13.48;6.35;;;;;;;24.49;31.16;99096.25;5094287;28;20747;-47
2023/11/08 10:12:01;;;;;;;15.82;6.28;;;;;;;24.62;31.30;99105.53;5094276;28;20099;-46
2023/11/08 10:14:35;;;;;;;16.17;6.30;;;;;;;24.66;30.95;99101.22;5094210;28;20024;-46
2023/11/08 10:17:03;;;;;;;15.65;6.70;;;;;;;24.80;31.03;99096.78;5094449;28;20050;-51
2023/11/08 10:19:55;;;;;;;11.27;5.55;;;;;;;24.76;31.45;99106.47;5093863;28;20119;-46
2023/11/08 10:22:21;;;;;;;11.45;5.85;;;;;;;24.91;31.24;99087.53;5088788;28;20032;-46
2023/11/08 10:24:56;;;;;;;11.48;5.75;;;;;;;24.82;31.51;99080.38;5093971;28;20020;-47
2023/11/08 10:27:23;;;;;;;10.43;6.85;;;;;;;24.63;36.65;99081.13;5093942;28;20073;-46
2023/11/08 10:29:50;;;;;;;13.48;9.05;;;;;;;23.35;37.69;99081.94;5091860;28;20039;-47
2023/11/08 10:32:20;;;;;;;8.43;6.78;;;;;;;22.61;37.50;99083.44;5092493;28;20102;-46
2023/11/08 10:34:47;;;;;;;21.70;12.93;;;;;;;22.22;40.76;99073.28;5094116;28;20032;-46
2023/11/08 10:37:26;;;;;;;63.72;57.50;;;;;;;21.51;41.67;99074.75;5092455;28;20024;-46
2023/11/08 10:39:53;;;;;;;25.23;13.88;;;;;;;21.19;42.21;99073.03;5093709;28;20051;-46
2023/11/08 10:42:22;;;;;;;21.55;13.63;;;;;;;21.56;40.54;99066.78;5092345;28;20028;-46
2023/11/08 10:44:48;;;;;;;26.00;19.95;;;;;;;22.30;38.45;99059.41;5093574;28;20024;-47
2023/11/08 10:47:15;;;;;;;35.17;28.40;;;;;;;22.66;37.91;99054.03;5093552;28;20016;-47
2023/11/08 10:49:46;;;;;;;21.88;12.55;;;;;;;22.99;37.00;99043.75;5093717;28;20028;-47
2023/11/08 10:52:12;;;;;;;27.25;15.32;;;;;;;23.15;36.43;99037.28;5093706;28;20089;-47
2023/11/08 10:54:42;;;;;;;30.45;22.17;;;;;;;23.34;35.51;99032.09;5093506;28;20077;-47
2023/11/08 10:57:08;;;;;;;42.63;30.17;;;;;;;23.68;35.07;99023.34;5093348;28;20024;-47
2023/11/08 10:59:40;;;;;;;50.40;44.42;;;;;;;24.19;34.24;99028.38;5092167;28;20031;-47
2023/11/08 11:02:22;;;;;;;15.90;14.35;;;;;;;24.78;32.97;99013.03;5093183;28;20102;-47
2023/11/08 11:04:56;;;;;;;41.75;37.20;;;;;;;25.37;31.84;99018.25;5091898;28;20036;-47
2023/11/08 11:07:25;;;;;;;70.80;55.15;;;;;;;25.66;31.41;99010.06;5093219;28;20089;-47
2023/11/08 11:09:54;;;;;;;118.82;107.30;;;;;;;25.77;31.27;99006.09;5091841;28;20031;-47
2023/11/08 11:12:47;;;;;;;22.48;11.95;;;;;;;25.88;30.61;99007.53;5093039;28;20501;-47
2023/11/08 11:15:32;;;;;;;13.00;5.43;;;;;;;25.89;30.73;99002.97;5093092;28;20024;-47
2023/11/08 11:18:00;;;;;;;9.18;4.80;;;;;;;26.22;29.98;98994.91;5091520;28;20080;-48
2023/11/08 11:20:39;;;;;;;15.38;4.72;;;;;;;26.35;29.61;98996.03;5092961;28;20028;-47
2023/11/08 11:23:34;;;;;;;13.35;4.80;;;;;;;26.29;29.52;98987.25;5092952;28;20089;-47
2023/11/08 11:26:00;;;;;;;8.53;4.60;;;;;;;26.22;29.98;98993.03;5091423;28;20024;-47
2023/11/08 11:28:57;;;;;;;10.07;4.40;;;;;;;26.02;29.90;98988.00;5092696;28;20258;-47